createdAt,value
2023-01-07T00:01:44.405Z,8.27
2023-01-07T00:04:14.244Z,8.18
2023-01-07T00:06:43.074Z,8.17
2023-01-07T00:09:13.413Z,8.18
2023-01-07T00:11:41.468Z,8.10
2023-01-07T00:14:11.072Z,8.08
2023-01-07T00:16:39.685Z,8.11
2023-01-07T00:22:16.701Z,8.13
2023-01-07T00:24:43.774Z,8.14
2023-01-07T00:27:10.684Z,8.15
2023-01-07T00:29:37.764Z,8.15
2023-01-07T00:32:05.013Z,8.18
2023-01-07T00:34:32.637Z,8.18
2023-01-07T00:37:19.628Z,8.18
2023-01-07T00:39:46.872Z,8.15
2023-01-07T00:42:35.260Z,8.17
2023-01-07T00:45:02.489Z,8.18
2023-01-07T00:47:29.470Z,8.14
2023-01-07T00:50:02.958Z,8.13
2023-01-07T00:52:29.915Z,8.08
2023-01-07T00:55:15.431Z,8.05
2023-01-07T00:57:43.955Z,8.02
2023-01-07T01:00:13.997Z,7.99
2023-01-07T01:02:41.707Z,7.97
2023-01-07T01:05:10.299Z,7.93
2023-01-07T01:07:38.379Z,7.94
2023-01-07T01:10:07.612Z,7.92
2023-01-07T01:12:38.142Z,7.88
2023-01-07T01:15:10.124Z,7.89
2023-01-07T01:17:37.679Z,7.88
2023-01-07T01:20:05.890Z,7.90
2023-01-07T01:22:36.055Z,7.92
2023-01-07T01:25:03.926Z,7.89
2023-01-07T01:27:39.167Z,7.92
2023-01-07T01:30:07.796Z,7.93
2023-01-07T01:32:38.308Z,7.93
2023-01-07T01:35:07.030Z,7.92
2023-01-07T01:37:34.051Z,7.97
2023-01-07T01:40:04.110Z,8.05
2023-01-07T01:42:33.424Z,8.07
2023-01-07T01:45:04.481Z,8.08
2023-01-07T01:47:50.428Z,8.07
2023-01-07T01:50:29.937Z,8.05
2023-01-07T01:53:07.964Z,8.05
2023-01-07T01:55:44.755Z,8.06
2023-01-07T01:58:18.362Z,8.07
2023-01-07T02:00:45.579Z,8.07
2023-01-07T02:03:18.497Z,8.05
2023-01-07T02:05:47.315Z,8.04
2023-01-07T02:08:17.531Z,8.04
2023-01-07T02:10:44.575Z,7.99
2023-01-07T02:13:28.325Z,8.01
2023-01-07T02:16:08.529Z,8.01
2023-01-07T02:18:57.465Z,8.00
2023-01-07T02:21:43.129Z,7.99
2023-01-07T02:24:48.297Z,7.98
2023-01-07T02:27:35.737Z,7.97
2023-01-07T02:30:21.215Z,7.99
2023-01-07T02:32:57.368Z,7.98
2023-01-07T02:35:24.446Z,7.95
2023-01-07T02:38:24.603Z,7.97
2023-01-07T02:41:13.434Z,7.94
2023-01-07T02:43:58.118Z,7.95
2023-01-07T02:46:36.767Z,7.95
2023-01-07T02:49:17.517Z,7.98
2023-01-07T02:51:46.278Z,8.00
2023-01-07T02:54:21.782Z,8.01
2023-01-07T02:57:06.876Z,7.94
2023-01-07T03:00:10.833Z,7.94
2023-01-07T03:02:52.516Z,7.90
2023-01-07T03:05:51.166Z,7.88
2023-01-07T03:09:03.782Z,7.87
2023-01-07T03:11:45.678Z,7.87
2023-01-07T03:14:51.591Z,7.88
2023-01-07T03:17:28.187Z,7.87
2023-01-07T03:20:00.045Z,7.86
2023-01-07T03:22:29.929Z,7.87
2023-01-07T03:24:58.402Z,7.86
2023-01-07T03:27:28.963Z,7.85
2023-01-07T03:29:57.124Z,7.87
2023-01-07T03:32:32.789Z,7.85
2023-01-07T03:34:59.914Z,7.88
2023-01-07T03:37:28.759Z,7.85
2023-01-07T03:39:59.215Z,7.83
2023-01-07T03:42:40.300Z,7.88
2023-01-07T03:45:22.016Z,7.83
2023-01-07T03:47:51.702Z,7.81
2023-01-07T03:50:38.291Z,7.78
2023-01-07T03:53:06.433Z,7.79
2023-01-07T03:55:35.727Z,7.75
2023-01-07T03:58:04.143Z,7.76
2023-01-07T04:00:31.103Z,7.71
2023-01-07T04:03:06.139Z,7.69
2023-01-07T04:05:38.165Z,7.73
2023-01-07T04:08:05.461Z,7.71
2023-01-07T04:10:35.970Z,7.72
2023-01-07T04:13:02.948Z,7.75
2023-01-07T04:15:30.498Z,7.75
2023-01-07T04:17:57.722Z,7.75
2023-01-07T04:20:25.627Z,7.75
2023-01-07T04:22:53.830Z,7.76
2023-01-07T04:25:20.779Z,7.76
2023-01-07T04:27:48.195Z,7.79
2023-01-07T04:30:15.373Z,7.78
2023-01-07T04:33:01.922Z,7.82
2023-01-07T04:35:47.618Z,7.82
2023-01-07T04:38:15.703Z,7.81
2023-01-07T04:40:43.116Z,7.82
2023-01-07T04:43:10.493Z,7.85
2023-01-07T04:45:37.596Z,7.83
2023-01-07T04:48:07.457Z,7.85
2023-01-07T04:50:34.664Z,7.85
2023-01-07T04:53:01.763Z,7.84
2023-01-07T04:55:29.269Z,7.88
2023-01-07T04:57:57.162Z,7.90
2023-01-07T05:00:24.347Z,7.87
2023-01-07T05:02:54.269Z,7.92
2023-01-07T05:05:21.896Z,7.93
2023-01-07T05:07:49.282Z,7.97
2023-01-07T05:10:18.524Z,7.95
2023-01-07T05:12:45.876Z,7.93
2023-01-07T05:15:14.604Z,7.96
2023-01-07T05:17:42.580Z,7.94
2023-01-07T05:20:10.383Z,7.95
2023-01-07T05:22:38.865Z,7.94
2023-01-07T05:25:06.278Z,7.95
2023-01-07T05:27:33.327Z,7.93
2023-01-07T05:30:01.090Z,7.91
2023-01-07T05:32:28.285Z,7.89
2023-01-07T05:34:55.744Z,7.86
2023-01-07T05:37:22.956Z,7.82
2023-01-07T05:39:50.787Z,7.78
2023-01-07T05:42:19.704Z,7.75
2023-01-07T05:44:46.961Z,7.69
2023-01-07T05:47:13.921Z,7.67
2023-01-07T05:52:24.975Z,7.61
2023-01-07T05:54:52.105Z,7.59
2023-01-07T05:57:19.139Z,7.56
2023-01-07T05:59:46.050Z,7.57
2023-01-07T06:02:13.066Z,7.55
2023-01-07T06:04:40.141Z,7.55
2023-01-07T06:07:07.229Z,7.57
2023-01-07T06:09:34.323Z,7.56
2023-01-07T06:12:01.369Z,7.53
2023-01-07T06:14:28.459Z,7.55
2023-01-07T06:17:14.091Z,7.56
2023-01-07T06:19:41.032Z,7.55
2023-01-07T06:22:08.011Z,7.53
2023-01-07T06:24:53.968Z,7.51
2023-01-07T06:27:21.009Z,7.52
2023-01-07T06:29:48.000Z,7.51
2023-01-07T06:32:14.967Z,7.48
2023-01-07T06:34:42.120Z,7.50
2023-01-07T06:37:09.186Z,7.49
2023-01-07T06:39:54.713Z,7.49
2023-01-07T06:42:21.705Z,7.48
2023-01-07T06:44:48.785Z,7.47
2023-01-07T06:47:15.787Z,7.47
2023-01-07T06:49:42.756Z,7.50
2023-01-07T06:52:09.691Z,7.51
2023-01-07T06:54:36.792Z,7.52
2023-01-07T06:57:03.820Z,7.51
2023-01-07T06:59:30.792Z,7.57
2023-01-07T07:01:57.797Z,7.67
2023-01-07T07:04:24.766Z,8.07
2023-01-07T07:06:51.752Z,8.26
2023-01-07T07:09:18.587Z,8.20
2023-01-07T07:11:45.567Z,8.12
2023-01-07T07:14:13.961Z,8.08
2023-01-07T07:16:40.902Z,8.01
2023-01-07T07:19:07.945Z,7.98
2023-01-07T07:21:35.339Z,7.94
2023-01-07T07:24:02.289Z,7.93
2023-01-07T07:26:29.235Z,7.92
2023-01-07T07:28:58.496Z,7.91
2023-01-07T07:31:25.444Z,7.97
2023-01-07T07:33:52.564Z,8.11
2023-01-07T07:36:21.799Z,8.37
2023-01-07T07:38:49.111Z,8.67
2023-01-07T07:44:01.015Z,9.31
2023-01-07T07:46:28.396Z,9.76
2023-01-07T07:48:55.329Z,10.26
2023-01-07T07:51:23.335Z,10.56
2023-01-07T07:53:50.774Z,11.02
2023-01-07T07:56:17.824Z,11.54
2023-01-07T07:58:44.728Z,12.03
2023-01-07T08:01:11.725Z,12.64
2023-01-07T08:03:39.059Z,13.02
2023-01-07T08:06:06.466Z,13.40
2023-01-07T08:08:34.177Z,13.83
2023-01-07T08:11:06.139Z,14.33
2023-01-07T08:13:33.269Z,14.84
2023-01-07T08:16:00.326Z,15.33
2023-01-07T08:18:28.334Z,15.74
2023-01-07T08:20:55.906Z,16.10
2023-01-07T08:23:23.246Z,16.36
2023-01-07T08:26:08.835Z,16.70
2023-01-07T08:28:36.845Z,17.23
2023-01-07T08:31:05.890Z,17.56
2023-01-07T08:33:37.817Z,17.88
2023-01-07T08:36:09.350Z,17.93
2023-01-07T08:38:36.704Z,18.05
2023-01-07T08:41:04.164Z,18.68
2023-01-07T08:43:31.337Z,19.00
2023-01-07T08:46:01.941Z,18.98
2023-01-07T08:48:47.446Z,18.79
2023-01-07T08:51:35.252Z,18.79
2023-01-07T08:54:02.457Z,18.77
2023-01-07T08:56:29.562Z,18.72
2023-01-07T08:58:56.878Z,18.61
2023-01-07T09:01:51.039Z,18.57
2023-01-07T09:04:22.735Z,18.76
2023-01-07T09:07:16.148Z,18.97
2023-01-07T09:13:49.985Z,19.20
2023-01-07T09:16:17.746Z,19.36
2023-01-07T09:18:47.719Z,19.35
2023-01-07T09:21:14.751Z,19.54
2023-01-07T09:23:49.305Z,19.65
2023-01-07T09:26:34.613Z,19.79
2023-01-07T09:29:01.709Z,19.83
2023-01-07T09:31:28.741Z,19.87
2023-01-07T09:33:55.827Z,19.91
2023-01-07T09:36:23.567Z,19.92
2023-01-07T09:39:11.995Z,20.09
2023-01-07T09:41:57.993Z,20.18
2023-01-07T09:45:02.416Z,20.18
2023-01-07T09:47:31.234Z,20.23
2023-01-07T09:50:11.379Z,20.14
2023-01-07T09:52:43.835Z,20.26
2023-01-07T09:55:26.034Z,20.23
2023-01-07T09:57:53.450Z,20.26
2023-01-07T10:00:25.061Z,20.39
2023-01-07T10:03:16.461Z,20.51
2023-01-07T10:05:43.425Z,20.64
2023-01-07T10:08:46.386Z,20.73
2023-01-07T10:11:45.647Z,20.71
2023-01-07T10:14:43.231Z,20.73
2023-01-07T10:17:16.017Z,20.76
2023-01-07T10:19:57.913Z,20.71
2023-01-07T10:22:37.443Z,20.80
2023-01-07T10:25:16.606Z,20.80
2023-01-07T10:27:49.062Z,20.86
2023-01-07T10:30:25.991Z,20.88
2023-01-07T10:33:02.908Z,20.90
2023-01-07T10:35:57.366Z,20.83
2023-01-07T10:38:34.390Z,20.86
2023-01-07T10:41:23.619Z,20.82
2023-01-07T10:44:16.731Z,20.87
2023-01-07T10:47:15.869Z,20.85
2023-01-07T10:49:45.597Z,20.85
2023-01-07T10:52:57.153Z,20.84
2023-01-07T10:55:32.867Z,20.84
2023-01-07T10:58:00.015Z,20.91
2023-01-07T11:00:27.176Z,20.91
2023-01-07T11:03:06.981Z,20.87
2023-01-07T11:05:38.838Z,20.81
2023-01-07T11:08:37.997Z,20.82
2023-01-07T11:11:06.830Z,20.75
2023-01-07T11:13:39.595Z,20.68
2023-01-07T11:16:20.733Z,20.65
2023-01-07T11:18:55.157Z,20.61
2023-01-07T11:21:43.359Z,20.65
2023-01-07T11:24:31.511Z,20.64
2023-01-07T11:27:06.867Z,20.55
2023-01-07T11:29:42.572Z,20.51
2023-01-07T11:32:27.786Z,20.46
2023-01-07T11:35:00.038Z,20.40
2023-01-07T11:37:38.987Z,20.15
2023-01-07T11:40:26.557Z,19.96
2023-01-07T11:43:02.952Z,19.90
2023-01-07T11:46:19.498Z,19.91
2023-01-07T11:48:52.964Z,19.85
2023-01-07T11:51:23.513Z,19.83
2023-01-07T11:56:22.122Z,19.54
2023-01-07T11:59:15.111Z,19.37
2023-01-07T12:01:47.599Z,19.31
2023-01-07T12:04:20.648Z,19.28
2023-01-07T12:06:51.093Z,19.24
2023-01-07T12:09:28.064Z,19.17
2023-01-07T12:12:18.353Z,19.18
2023-01-07T12:14:47.788Z,19.19
2023-01-07T12:17:18.764Z,19.23
2023-01-07T12:20:14.755Z,19.20
2023-01-07T12:23:03.437Z,19.25
2023-01-07T12:25:52.901Z,19.27
2023-01-07T12:28:48.731Z,19.24
2023-01-07T12:31:43.527Z,19.18
2023-01-07T12:34:35.636Z,19.15
2023-01-07T12:37:22.089Z,19.18
2023-01-07T12:39:56.954Z,19.27
2023-01-07T12:42:31.920Z,19.25
2023-01-07T12:45:07.162Z,19.27
2023-01-07T12:47:44.425Z,19.23
2023-01-07T12:50:34.864Z,19.28
2023-01-07T12:53:20.867Z,19.27
2023-01-07T12:55:57.012Z,19.32
2023-01-07T12:58:39.784Z,19.32
2023-01-07T13:04:10.625Z,19.29
2023-01-07T13:07:20.807Z,19.28
2023-01-07T13:09:57.342Z,19.28
2023-01-07T13:12:43.529Z,19.28
2023-01-07T13:15:36.431Z,19.07
2023-01-07T13:18:16.509Z,19.05
2023-01-07T13:21:05.295Z,19.01
2023-01-07T13:24:07.380Z,19.10
2023-01-07T13:26:43.612Z,19.14
2023-01-07T13:29:37.856Z,19.13
2023-01-07T13:32:25.424Z,19.19
2023-01-07T13:35:06.855Z,19.06
2023-01-07T13:38:10.302Z,19.06
2023-01-07T13:40:49.276Z,19.05
2023-01-07T13:43:58.222Z,18.93
2023-01-07T13:46:33.564Z,18.95
2023-01-07T13:49:00.691Z,18.90
2023-01-07T13:51:32.019Z,18.91
2023-01-07T13:53:59.256Z,18.79
2023-01-07T13:56:26.198Z,18.76
2023-01-07T13:58:58.443Z,18.84
2023-01-07T14:01:30.884Z,18.77
2023-01-07T14:04:03.978Z,18.84
2023-01-07T14:06:41.992Z,18.83
2023-01-07T14:09:11.170Z,18.67
2023-01-07T14:11:42.201Z,18.63
2023-01-07T14:14:21.235Z,18.50
2023-01-07T14:16:53.886Z,18.47
2023-01-07T14:19:30.187Z,18.46
2023-01-07T14:25:43.915Z,18.41
2023-01-07T14:28:41.362Z,18.43
2023-01-07T14:31:22.719Z,18.48
2023-01-07T14:33:58.932Z,18.50
2023-01-07T14:37:17.891Z,18.51
2023-01-07T14:39:46.774Z,18.47
2023-01-07T14:42:20.390Z,18.52
2023-01-07T14:44:50.995Z,18.50
2023-01-07T14:47:54.117Z,18.54
2023-01-07T14:50:56.993Z,18.48
2023-01-07T14:53:43.256Z,18.53
2023-01-07T14:56:16.404Z,18.45
2023-01-07T14:58:56.139Z,18.47
2023-01-07T15:01:36.997Z,18.43
2023-01-07T15:04:35.184Z,18.41
2023-01-07T15:07:04.260Z,18.39
2023-01-07T15:10:05.319Z,18.37
2023-01-07T15:12:56.468Z,18.33
2023-01-07T15:15:48.060Z,18.32
2023-01-07T15:18:16.069Z,18.25
2023-01-07T15:20:46.545Z,18.14
2023-01-07T15:23:28.721Z,18.05
2023-01-07T15:26:17.827Z,18.06
2023-01-07T15:28:57.445Z,18.07
2023-01-07T15:31:24.269Z,18.03
2023-01-07T15:34:29.862Z,17.99
2023-01-07T15:36:57.773Z,17.89
2023-01-07T15:39:29.715Z,17.89
2023-01-07T15:41:57.913Z,17.88
2023-01-07T15:44:39.559Z,17.84
2023-01-07T15:47:38.130Z,17.80
2023-01-07T15:50:37.010Z,17.72
2023-01-07T15:53:59.498Z,17.65
2023-01-07T15:56:26.683Z,17.55
2023-01-07T16:02:42.760Z,17.41
2023-01-07T16:05:10.469Z,17.35
2023-01-07T16:08:18.062Z,17.34
2023-01-07T16:11:09.082Z,17.27
2023-01-07T16:13:36.869Z,17.21
2023-01-07T16:16:06.750Z,17.17
2023-01-07T16:18:33.839Z,17.16
2023-01-07T16:21:28.362Z,17.10
2023-01-07T16:23:58.941Z,16.98
2023-01-07T16:26:55.480Z,16.99
2023-01-07T16:29:30.566Z,16.93
2023-01-07T16:31:59.348Z,16.89
2023-01-07T16:34:26.175Z,16.80
2023-01-07T16:36:58.810Z,16.80
2023-01-07T16:39:34.246Z,16.77
2023-01-07T16:42:20.784Z,16.72
2023-01-07T16:44:49.812Z,16.67
2023-01-07T16:47:27.239Z,16.60
2023-01-07T16:50:15.838Z,16.53
2023-01-07T16:55:44.691Z,16.51
2023-01-07T16:58:26.979Z,16.51
2023-01-07T17:00:56.509Z,16.46
2023-01-07T17:03:25.440Z,16.41
2023-01-07T17:06:08.038Z,16.37
2023-01-07T17:08:36.871Z,16.35
2023-01-07T17:11:23.152Z,16.33
2023-01-07T17:13:50.706Z,16.29
2023-01-07T17:16:27.027Z,16.24
2023-01-07T17:18:59.063Z,16.20
2023-01-07T17:22:02.411Z,16.21
2023-01-07T17:24:29.633Z,16.14
2023-01-07T17:27:00.662Z,16.11
2023-01-07T17:29:35.572Z,16.12
2023-01-07T17:32:04.629Z,16.04
2023-01-07T17:34:31.749Z,16.04
2023-01-07T17:36:58.763Z,15.98
2023-01-07T17:39:25.642Z,15.94
2023-01-07T17:42:11.190Z,15.89
2023-01-07T17:44:38.087Z,15.82
2023-01-07T17:47:24.874Z,15.84
2023-01-07T17:52:36.636Z,15.78
2023-01-07T17:55:03.688Z,15.69
2023-01-07T17:57:30.587Z,15.73
2023-01-07T17:59:58.179Z,15.73
2023-01-07T18:02:31.475Z,15.73
2023-01-07T18:04:59.507Z,15.73
2023-01-07T18:07:26.691Z,15.71
2023-01-07T18:12:40.388Z,15.71
2023-01-07T18:15:20.188Z,15.70
2023-01-07T18:17:57.535Z,15.65
2023-01-07T18:20:25.419Z,15.60
2023-01-07T18:23:17.888Z,15.57
2023-01-07T18:25:45.382Z,15.56
2023-01-07T18:28:13.306Z,15.55
2023-01-07T18:30:41.612Z,15.57
2023-01-07T18:33:29.114Z,15.55
2023-01-07T18:35:56.422Z,15.53
2023-01-07T18:38:27.666Z,15.50
2023-01-07T18:40:55.800Z,15.48
2023-01-07T18:43:22.870Z,15.41
2023-01-07T18:45:49.903Z,15.35
2023-01-07T18:48:22.784Z,15.35
2023-01-07T18:50:50.320Z,15.35
2023-01-07T18:53:22.583Z,15.37
2023-01-07T18:56:01.733Z,15.33
2023-01-07T18:58:28.987Z,15.32
2023-01-07T19:00:56.263Z,15.31
2023-01-07T19:03:26.475Z,15.25
2023-01-07T19:05:53.736Z,15.27
2023-01-07T19:08:21.282Z,15.22
2023-01-07T19:10:49.948Z,15.21
2023-01-07T19:13:17.867Z,15.18
2023-01-07T19:15:45.429Z,15.15
2023-01-07T19:18:30.887Z,15.12
2023-01-07T19:21:01.978Z,15.14
2023-01-07T19:23:32.050Z,15.10
2023-01-07T19:26:04.835Z,15.03
2023-01-07T19:28:33.214Z,15.07
2023-01-07T19:31:08.679Z,15.04
2023-01-07T19:33:37.906Z,15.00
2023-01-07T19:36:10.934Z,15.03
2023-01-07T19:38:42.702Z,15.02
2023-01-07T19:41:46.864Z,14.99
2023-01-07T19:44:17.756Z,14.99
2023-01-07T19:46:45.210Z,14.95
2023-01-07T19:52:23.492Z,14.86
2023-01-07T19:54:50.495Z,14.88
2023-01-07T19:57:18.033Z,14.87
2023-01-07T19:59:48.348Z,14.92
2023-01-07T20:02:16.480Z,14.85
2023-01-07T20:04:43.564Z,14.91
2023-01-07T20:07:15.293Z,14.88
2023-01-07T20:09:43.209Z,14.78
2023-01-07T20:12:12.667Z,14.84
2023-01-07T20:14:42.269Z,14.77
2023-01-07T20:17:09.159Z,14.80
2023-01-07T20:19:38.931Z,14.85
2023-01-07T20:22:05.882Z,14.88
2023-01-07T20:24:37.409Z,14.85
2023-01-07T20:27:11.101Z,14.87
2023-01-07T20:29:38.820Z,14.79
2023-01-07T20:32:10.569Z,14.79
2023-01-07T20:34:38.132Z,14.74
2023-01-07T20:37:05.657Z,14.81
2023-01-07T20:42:53.932Z,14.79
2023-01-07T20:45:47.194Z,14.70
2023-01-07T20:48:18.543Z,14.70
2023-01-07T20:50:45.840Z,14.68
2023-01-07T20:53:53.158Z,14.71
2023-01-07T20:56:26.342Z,14.70
2023-01-07T20:59:11.895Z,14.69
2023-01-07T21:01:39.622Z,14.68
2023-01-07T21:04:09.601Z,14.72
2023-01-07T21:06:36.758Z,14.70
2023-01-07T21:09:03.823Z,14.74
2023-01-07T21:11:30.775Z,14.71
2023-01-07T21:14:16.281Z,14.69
2023-01-07T21:16:43.183Z,14.71
2023-01-07T21:19:11.103Z,14.68
2023-01-07T21:21:38.044Z,14.58
2023-01-07T21:24:12.014Z,14.62
2023-01-07T21:29:24.563Z,14.57
2023-01-07T21:31:53.623Z,14.60
2023-01-07T21:34:21.281Z,14.59
2023-01-07T21:36:51.275Z,14.60
2023-01-07T21:39:18.869Z,14.61
2023-01-07T21:41:46.756Z,14.56
2023-01-07T21:44:14.767Z,14.59
2023-01-07T21:46:41.958Z,14.58
2023-01-07T21:49:13.303Z,14.59
2023-01-07T21:51:40.895Z,14.57
2023-01-07T21:54:07.822Z,14.56
2023-01-07T21:56:35.059Z,14.55
2023-01-07T21:59:04.083Z,14.57
2023-01-07T22:01:31.218Z,14.56
2023-01-07T22:04:08.492Z,14.52
2023-01-07T22:06:42.285Z,14.60
2023-01-07T22:12:49.457Z,14.51
2023-01-07T22:15:33.439Z,14.59
2023-01-07T22:18:56.487Z,14.52
2023-01-07T22:21:39.039Z,14.53
2023-01-07T22:24:15.289Z,14.48
2023-01-07T22:27:01.669Z,14.47
2023-01-07T22:29:31.199Z,14.47
2023-01-07T22:32:06.776Z,14.50
2023-01-07T22:34:43.033Z,14.39
2023-01-07T22:38:04.636Z,14.11
2023-01-07T22:40:39.250Z,13.59
2023-01-07T22:43:14.047Z,13.30
2023-01-07T22:45:50.009Z,13.08
2023-01-07T22:48:21.003Z,12.89
2023-01-07T22:51:30.115Z,12.62
2023-01-07T22:53:58.938Z,12.46
2023-01-07T23:00:53.299Z,12.19
2023-01-07T23:03:22.129Z,12.07
2023-01-07T23:05:53.559Z,12.04
2023-01-07T23:08:24.471Z,12.00
2023-01-07T23:10:51.655Z,11.92
2023-01-07T23:13:18.855Z,11.89
2023-01-07T23:15:48.740Z,11.90
2023-01-07T23:18:16.582Z,11.88
2023-01-07T23:20:44.055Z,11.84
2023-01-07T23:23:13.116Z,11.78
2023-01-07T23:25:53.521Z,11.78
2023-01-07T23:28:23.482Z,11.74
2023-01-07T23:30:52.618Z,11.76
2023-01-07T23:33:19.659Z,11.77
2023-01-07T23:35:46.621Z,11.78
2023-01-07T23:38:19.104Z,11.82
2023-01-07T23:41:07.800Z,11.83
2023-01-07T23:43:35.661Z,11.83
2023-01-07T23:46:08.087Z,11.86
2023-01-07T23:48:56.916Z,11.88
2023-01-07T23:57:17.661Z,11.89
2023-01-07T23:59:47.269Z,11.92
